• Join FlightAware (Why Join?)
  • Login
  • US Flag 
10:56PM EDT


 

Airport Tracker/Info


-or-


 

Live Flight TrackerFlight Track Log ✈ LBQ860 ✈ 07-Jun-2013 ✈ KFXE - KLZU

Flight Track Log - Related Links

Times and Time Zones

All times are in EDT time to prevent confusion due to time zone crossing. See the LBQ860 flight status page for this flight to view local times or setup timezone preferences in your user account.

Time Position Orientation Groundspeed Altitude Reporting Facility
EDT Latitude Longitude Course Direction KTS MPH feet Rate Location/Type
01:16AM 26.1967 -80.2072 282° West 137 158 1,000  Level Miami Center
01:17AM 26.2253 -80.2333 321° Northwest 158 182 2,400 1,380 Climbing Miami Center
01:17AM 26.2397 -80.2408 335° Northwest 171 197 2,600 1,320 Climbing Miami Center
01:18AM 26.2769 -80.2511 346° North 187 215 4,100 1,620 Climbing Miami Center
01:19AM 26.3267 -80.2758 336° Northwest 182 209 5,800 1,500 Climbing Miami Center
01:20AM 26.3658 -80.2953 336° Northwest 172 198 7,100 1,500 Climbing Miami Center
01:21AM 26.4156 -80.3108 344° North 172 198 8,800 1,440 Climbing Miami Center
01:22AM 26.4589 -80.3283 340° North 172 198 10,000 1,260 Climbing Miami Center
01:23AM 26.5106 -80.3531 337° Northwest 172 198 11,400 1,200 Climbing Miami Center
01:24AM 26.5561 -80.3775 334° Northwest 172 198 12,500 1,200 Climbing Miami Center
01:25AM 26.6078 -80.4000 339° North 183 211 13,800 1,200 Climbing Miami Center
01:26AM 26.6592 -80.4247 337° Northwest 198 228 15,000 1,200 Climbing Miami Center
01:27AM 26.7089 -80.4494 336° Northwest 198 228 16,200 1,140 Climbing Miami Center
01:28AM 26.7606 -80.4722 339° North 198 228 17,300 1,080 Climbing Miami Center
01:29AM 26.8078 -80.4967 335° Northwest 192 221 18,400 1,080 Climbing Miami Center
01:30AM 26.8594 -80.5217 337° Northwest 192 221 19,500 1,080 Climbing Miami Center
01:31AM 26.9153 -80.5467 338° Northwest 197 227 20,600 1,020 Climbing Miami Center
01:32AM 26.9708 -80.5742 336° Northwest 210 242 21,600 900 Climbing Miami Center
01:33AM 27.0286 -80.5969 341° North 216 249 22,400 660 Climbing Miami Center
01:34AM 27.0886 -80.6244 338° Northwest 223 257 23,000 300 Climbing Miami Center
01:35AM 27.1547 -80.6547 338° Northwest 238 274 23,000 -60 Level Miami Center
01:36AM 27.2247 -80.6850 339° North 257 296 22,900  Descending Miami Center
01:37AM 27.2969 -80.7156 339° North 263 303 23,000  Climbing Miami Center
01:38AM 27.3692 -80.7483 338° Northwest 274 315 23,000 -60 Level Miami Center
01:39AM 27.4497 -80.7861 337° Northwest 274 315 22,900  Descending Miami Center
01:40AM 27.5261 -80.8167 340° North 280 322 23,000  Climbing Miami Center
01:41AM 27.5983 -80.8497 338° Northwest 280 322 23,000 -60 Level Miami Center
01:42AM 27.6703 -80.8850 337° Northwest 280 322 22,900 -60 Descending Miami Center
01:43AM 27.7425 -80.9158 339° North 280 322 22,900  Level Miami Center
01:44AM 27.8208 -80.9514 338° Northwest 285 328 23,000  Climbing Miami Center
01:45AM 27.8950 -80.9844 339° North 291 335 22,900 300 Descending Miami Center
01:46AM 27.9692 -81.0178 338° Northwest 291 335 23,700 720 Climbing Miami Center
01:47AM 28.0350 -81.0486 338° Northwest 281 323 24,400 540 Climbing Miami Center
01:48AM 28.1008 -81.0814 336° Northwest 269 310 24,900 240 Climbing Miami Center
01:49AM 28.1625 -81.1097 338° Northwest 264 304 24,900  Level Miami Center
01:51AM 28.3181 -81.1808 338° Northwest 283 326 24,900  Level Jacksonville Center
01:52AM 28.3914 -81.2172 336° Northwest 288 331 24,900  Level Jacksonville Center
01:53AM 28.4669 -81.2514 338° Northwest 288 331 24,900  Level Jacksonville Center
01:54AM 28.5425 -81.2833 340° North 288 331 24,900  Level Jacksonville Center
01:55AM 28.6161 -81.3200 336° Northwest 288 331 24,900  Level Jacksonville Center
01:56AM 28.6936 -81.3542 339° North 294 338 24,900  Level Jacksonville Center
01:57AM 28.7672 -81.3908 336° Northwest 294 338 24,900  Level Jacksonville Center
01:58AM 28.8428 -81.4231 340° North 294 338 24,900  Level Jacksonville Center
01:59AM 28.9161 -81.4597 336° Northwest 294 338 24,900  Level Jacksonville Center
02:00AM 28.9917 -81.4944 338° Northwest 294 338 24,900  Level Jacksonville Center
02:01AM 29.0653 -81.5314 336° Northwest 294 338 24,900  Level Jacksonville Center
02:02AM 29.1406 -81.5636 340° North 294 338 24,900  Level Jacksonville Center
02:03AM 29.1994 -81.5914 338° Northwest 294 338 24,900  Level Jacksonville Center
02:04AM 29.2792 -81.6308 337° Northwest 288 331 24,900  Level Jacksonville Center
02:05AM 29.3586 -81.6583 343° North 288 331 24,900  Level Jacksonville Center
02:06AM 29.4383 -81.6811 346° North 293 337 24,900  Level Jacksonville Center
02:07AM 29.5178 -81.7064 345° North 288 331 24,900  Level Jacksonville Center
02:08AM 29.5953 -81.7269 347° North 282 325 24,900  Level Jacksonville Center
02:09AM 29.6767 -81.7428 350° North 282 325 24,900  Level Jacksonville Center
02:10AM 29.7564 -81.7633 347° North 287 330 24,900  Level Jacksonville Center
02:11AM 29.8378 -81.7817 349° North 292 336 24,900  Level Jacksonville Center
02:12AM 29.9153 -81.8069 344° North 292 336 24,900  Level Jacksonville Center
02:13AM 29.9908 -81.8350 342° North 292 336 24,900  Level Jacksonville Center
02:14AM 30.0642 -81.8678 339° North 286 329 24,900  Level Jacksonville Center
02:15AM 30.1353 -81.9056 335° Northwest 281 323 24,900  Level Jacksonville Center
02:16AM 30.2044 -81.9503 331° Northwest 281 323 24,900  Level Jacksonville Center
02:17AM 30.2781 -81.9881 336° Northwest 281 323 24,900  Level Jacksonville Center
02:18AM 30.3514 -82.0283 335° Northwest 281 323 24,900  Level Jacksonville Center
02:19AM 30.4267 -82.0639 338° Northwest 281 323 24,900  Level Jacksonville Center
02:20AM 30.4958 -82.1042 333° Northwest 281 323 24,900  Level Jacksonville Center
02:21AM 30.5756 -82.1494 334° Northwest 281 323 24,900  Level Jacksonville Center
02:22AM 30.6467 -82.1828 338° Northwest 281 323 24,900  Level Jacksonville Center
02:23AM 30.7178 -82.2233 334° Northwest 281 323 24,900  Level Jacksonville Center
02:24AM 30.7889 -82.2567 338° Northwest 276 318 25,000  Climbing Jacksonville Center
02:25AM 30.8603 -82.2972 334° Northwest 276 318 24,900 -60 Descending Jacksonville Center
02:27AM 31.0044 -82.3689 337° Northwest 276 318 24,900  Level Jacksonville Center
02:28AM 31.0736 -82.4100 333° Northwest 276 318 24,900  Level Jacksonville Center
02:29AM 31.1489 -82.4458 338° Northwest 276 318 25,000  Climbing Jacksonville Center
02:30AM 31.2222 -82.4869 334° Northwest 281 323 24,900 -60 Descending Jacksonville Center
02:32AM 31.3029 -82.5328 334° Northwest  Level FlightAware Approximate
02:32AM 31.3706 -82.5567 334° Northwest 281 323 24,900  Level Jacksonville Center
02:34AM 31.5047 -82.6311 335° Northwest 292 336 24,900  Level Atlanta Center
02:35AM 31.5783 -82.6689 336° Northwest 287 330 24,900  Level Atlanta Center
02:36AM 31.6497 -82.7094 334° Northwest 282 325 24,900  Level Atlanta Center
02:37AM 31.7211 -82.7472 336° Northwest 277 319 24,900  Level Atlanta Center
02:38AM 31.7925 -82.7853 336° Northwest 277 319 24,900  Level Atlanta Center
02:39AM 31.8681 -82.8236 337° Northwest 277 319 24,900  Level Atlanta Center
02:40AM 31.9392 -82.8592 337° Northwest 277 319 24,900  Level Atlanta Center
02:41AM 32.0128 -82.9000 335° Northwest 277 319 24,900  Level Atlanta Center
02:42AM 32.0861 -82.9381 336° Northwest 277 319 24,900  Level Atlanta Center
02:43AM 32.1594 -82.9767 336° Northwest 277 319 24,900  Level Atlanta Center
02:44AM 32.2328 -83.0150 336° Northwest 277 319 24,900  Level Atlanta Center
02:45AM 32.3019 -83.0533 335° Northwest 277 319 24,900  Level Atlanta Center
02:46AM 32.3775 -83.0944 335° Northwest 277 319 24,900  Level Atlanta Center
02:47AM 32.4508 -83.1356 335° Northwest 277 319 24,900  Level Atlanta Center
02:48AM 32.5158 -83.1669 338° Northwest 285 328 24,900  Level Atlanta Center
02:49AM 32.5911 -83.2081 335° Northwest 285 328 24,900  Level Atlanta Center
02:50AM 32.6625 -83.2467 336° Northwest 285 328 24,900 -660 Level Atlanta Center
02:51AM 32.7358 -83.2856 336° Northwest 285 328 23,600 -1,260 Descending Atlanta Center
02:52AM 32.8092 -83.3269 335° Northwest 280 322 22,400 -1,200 Descending Atlanta Center
02:53AM 32.8844 -83.3683 335° Northwest 280 322 21,200 -1,320 Descending Atlanta Center
02:54AM 32.9597 -83.4050 338° Northwest 285 328 19,800 -1,440 Descending Atlanta Center
02:55AM 33.0414 -83.4514 335° Northwest 285 328 18,400 -1,440 Descending Atlanta Center
02:56AM 33.1083 -83.4908 334° Northwest 285 328 17,000 -1,500 Descending Atlanta Center
02:57AM 33.1836 -83.5275 338° Northwest 292 336 15,500 -1,380 Descending Atlanta Center
02:58AM 33.2589 -83.5717 334° Northwest 297 342 14,300 -1,260 Descending Atlanta Center
02:59AM 33.3322 -83.6086 337° Northwest 297 342 13,000 -1,560 Descending Atlanta Center
03:00AM 33.3667 -83.6333 329° Northwest 285 328 12,100 -1,620 Descending Atlanta TRACON
03:00AM 33.4011 -83.6506 337° Northwest 287 330 11,400 -1,440 Descending Atlanta Center
03:01AM 33.4661 -83.6878 334° Northwest 266 306 9,900 -1,560 Descending Atlanta Center
03:02AM 33.5331 -83.7222 337° Northwest 261 300 8,300 -1,560 Descending Atlanta Center
03:03AM 33.6081 -83.7619 336° Northwest 261 300 6,800 -1,500 Descending Atlanta Center
03:04AM 33.6731 -83.7992 335° Northwest 261 300 5,300 -1,200 Descending Atlanta Center
03:05AM 33.7356 -83.8314 337° Northwest 255 293 4,400 -900 Descending Atlanta Center
03:07AM 33.8309 -83.8785 334° Northwest  Level FlightAware Approximate
03:14AM 33.9667 -83.9500 320° Northwest  Level FlightAware Approximate
03:15AM 33.9781 -83.9624 320° Northwest  Level Estimated
03:16AM 33.9781 -83.9624 320° Northwest  Level Estimated
03:17AM 33.9781 -83.9624 320° Northwest  Level Estimated
03:18AM 33.9781 -83.9624 320° Northwest  Level Estimated
03:19AM 33.9781 -83.9624 320° Northwest  Level Estimated
03:20AM 33.9781 -83.9624 320° Northwest  Level Estimated
03:21AM 33.9781 -83.9624 320° Northwest  Level Estimated
03:22AM 33.9781 -83.9624 320° Northwest  Level Estimated
03:23AM 33.9781 -83.9624 320° Northwest  Level Estimated
03:24AM 33.9781 -83.9624 320° Northwest  Level Estimated
03:25AM 33.9781 -83.9624 320° Northwest  Level Estimated
03:26AM 33.9781 -83.9624 320° Northwest  Level Estimated